sensor_id;sensor_type;location;lat;lon;timestamp;noise_LAeq;noise_LA_min;noise_LA_max;noise_LA01;noise_LA95
52872;Laerm;40124;52.198;9.902;2022-10-26T00:01:34;42.80;39.08;49.49;;
52872;Laerm;40124;52.198;9.902;2022-10-26T00:03:59;41.59;38.81;43.63;;
52872;Laerm;40124;52.198;9.902;2022-10-26T00:06:25;60.00;39.34;80.02;;
52872;Laerm;40124;52.198;9.902;2022-10-26T00:08:52;41.50;38.95;43.99;;
52872;Laerm;40124;52.198;9.902;2022-10-26T00:11:19;56.67;38.52;77.33;;
52872;Laerm;40124;52.198;9.902;2022-10-26T00:13:45;41.37;37.88;51.08;;
52872;Laerm;40124;52.198;9.902;2022-10-26T00:16:11;40.46;37.70;42.82;;
52872;Laerm;40124;52.198;9.902;2022-10-26T00:18:37;39.89;36.45;43.77;;
52872;Laerm;40124;52.198;9.902;2022-10-26T00:21:03;40.76;36.91;44.20;;
52872;Laerm;40124;52.198;9.902;2022-10-26T00:23:29;39.87;37.12;42.16;;
52872;Laerm;40124;52.198;9.902;2022-10-26T00:25:55;39.68;37.12;43.04;;
52872;Laerm;40124;52.198;9.902;2022-10-26T00:28:20;39.56;36.45;41.75;;
52872;Laerm;40124;52.198;9.902;2022-10-26T00:30:45;41.00;37.32;46.78;;
52872;Laerm;40124;52.198;9.902;2022-10-26T00:33:11;41.30;37.12;47.00;;
52872;Laerm;40124;52.198;9.902;2022-10-26T00:35:37;40.56;37.52;43.04;;
52872;Laerm;40124;52.198;9.902;2022-10-26T00:38:02;60.43;38.05;80.39;;
52872;Laerm;40124;52.198;9.902;2022-10-26T00:40:27;57.92;37.88;77.27;;
52872;Laerm;40124;52.198;9.902;2022-10-26T00:42:53;40.99;37.88;46.71;;
52872;Laerm;40124;52.198;9.902;2022-10-26T00:45:27;40.33;37.52;42.65;;
52872;Laerm;40124;52.198;9.902;2022-10-26T00:48:00;39.97;36.91;44.51;;
52872;Laerm;40124;52.198;9.902;2022-10-26T00:50:28;42.63;37.52;46.62;;
52872;Laerm;40124;52.198;9.902;2022-10-26T00:52:54;56.38;37.88;75.11;;
52872;Laerm;40124;52.198;9.902;2022-10-26T00:55:23;45.41;38.52;60.41;;
52872;Laerm;40124;52.198;9.902;2022-10-26T00:57:50;41.19;37.32;44.73;;
52872;Laerm;40124;52.198;9.902;2022-10-26T01:00:16;40.82;37.88;46.69;;
52872;Laerm;40124;52.198;9.902;2022-10-26T01:02:41;40.47;37.88;43.14;;
52872;Laerm;40124;52.198;9.902;2022-10-26T01:05:07;55.43;37.88;75.01;;
52872;Laerm;40124;52.198;9.902;2022-10-26T01:07:33;50.24;38.95;66.26;;
52872;Laerm;40124;52.198;9.902;2022-10-26T01:09:58;59.23;38.67;79.65;;
52872;Laerm;40124;52.198;9.902;2022-10-26T01:12:24;58.22;38.21;77.47;;
52872;Laerm;40124;52.198;9.902;2022-10-26T01:14:50;56.58;38.21;76.86;;
52872;Laerm;40124;52.198;9.902;2022-10-26T01:17:26;41.62;38.21;45.77;;
52872;Laerm;40124;52.198;9.902;2022-10-26T01:25:09;40.60;37.52;42.93;;
52872;Laerm;40124;52.198;9.902;2022-10-26T01:27:37;56.61;38.67;75.86;;
52872;Laerm;40124;52.198;9.902;2022-10-26T01:30:10;40.78;38.05;43.54;;
52872;Laerm;40124;52.198;9.902;2022-10-26T01:35:07;48.89;37.52;62.65;;
52872;Laerm;40124;52.198;9.902;2022-10-26T01:37:35;40.79;37.70;43.39;;
52872;Laerm;40124;52.198;9.902;2022-10-26T01:40:04;41.53;37.70;43.72;;
52872;Laerm;40124;52.198;9.902;2022-10-26T01:42:30;41.48;38.05;43.86;;
52872;Laerm;40124;52.198;9.902;2022-10-26T01:44:57;58.40;38.67;76.50;;
52872;Laerm;40124;52.198;9.902;2022-10-26T01:47:24;41.12;38.52;43.77;;
52872;Laerm;40124;52.198;9.902;2022-10-26T01:49:52;40.88;38.67;43.09;;
52872;Laerm;40124;52.198;9.902;2022-10-26T01:52:19;41.34;38.81;43.68;;
52872;Laerm;40124;52.198;9.902;2022-10-26T01:54:45;41.81;38.81;48.98;;
52872;Laerm;40124;52.198;9.902;2022-10-26T01:57:11;57.59;39.21;77.41;;
52872;Laerm;40124;52.198;9.902;2022-10-26T02:10:29;42.11;38.95;50.84;;
52872;Laerm;40124;52.198;9.902;2022-10-26T02:20:38;41.81;38.05;51.33;;
52872;Laerm;40124;52.198;9.902;2022-10-26T02:23:06;41.44;37.88;45.99;;
52872;Laerm;40124;52.198;9.902;2022-10-26T02:25:32;65.40;39.34;82.74;;
52872;Laerm;40124;52.198;9.902;2022-10-26T02:28:00;68.02;39.21;87.47;;
52872;Laerm;40124;52.198;9.902;2022-10-26T02:30:26;66.54;38.95;86.18;;
52872;Laerm;40124;52.198;9.902;2022-10-26T02:32:52;66.88;39.57;85.52;;
52872;Laerm;40124;52.198;9.902;2022-10-26T02:35:20;63.71;39.58;80.72;;
52872;Laerm;40124;52.198;9.902;2022-10-26T02:37:46;62.90;39.46;80.29;;
52872;Laerm;40124;52.198;9.902;2022-10-26T02:40:13;59.79;39.21;78.94;;
52872;Laerm;40124;52.198;9.902;2022-10-26T02:42:40;65.70;38.95;83.26;;
52872;Laerm;40124;52.198;9.902;2022-10-26T02:45:08;67.56;39.08;84.75;;
52872;Laerm;40124;52.198;9.902;2022-10-26T02:47:35;56.83;38.95;76.91;;
52872;Laerm;40124;52.198;9.902;2022-10-26T02:50:00;63.80;39.21;82.93;;
52872;Laerm;40124;52.198;9.902;2022-10-26T02:52:47;61.91;39.08;81.61;;
52872;Laerm;40124;52.198;9.902;2022-10-26T02:55:48;66.98;39.21;82.87;;
52872;Laerm;40124;52.198;9.902;2022-10-26T02:58:08;64.52;40.43;82.26;;
52872;Laerm;40124;52.198;9.902;2022-10-26T03:00:35;66.82;42.09;82.77;;
52872;Laerm;40124;52.198;9.902;2022-10-26T03:03:01;61.98;39.21;78.53;;
52872;Laerm;40124;52.198;9.902;2022-10-26T03:05:29;63.48;41.30;80.33;;
52872;Laerm;40124;52.198;9.902;2022-10-26T03:07:58;63.42;40.23;78.51;;
52872;Laerm;40124;52.198;9.902;2022-10-26T03:10:23;69.70;42.41;86.79;;
52872;Laerm;40124;52.198;9.902;2022-10-26T03:12:49;64.62;40.53;81.65;;
52872;Laerm;40124;52.198;9.902;2022-10-26T03:15:14;68.43;42.82;85.28;;
52872;Laerm;40124;52.198;9.902;2022-10-26T03:17:39;65.57;42.35;78.89;;
52872;Laerm;40124;52.198;9.902;2022-10-26T03:20:05;64.35;42.85;79.84;;
52872;Laerm;40124;52.198;9.902;2022-10-26T03:22:30;67.49;47.10;79.82;;
52872;Laerm;40124;52.198;9.902;2022-10-26T03:24:55;66.98;41.46;80.24;;
52872;Laerm;40124;52.198;9.902;2022-10-26T03:27:20;66.82;41.14;80.16;;
52872;Laerm;40124;52.198;9.902;2022-10-26T03:29:46;67.99;43.04;83.19;;
52872;Laerm;40124;52.198;9.902;2022-10-26T03:32:12;66.69;43.04;78.84;;
52872;Laerm;40124;52.198;9.902;2022-10-26T03:34:37;67.67;44.39;80.57;;
52872;Laerm;40124;52.198;9.902;2022-10-26T03:37:02;71.19;44.80;86.50;;
52872;Laerm;40124;52.198;9.902;2022-10-26T03:39:27;69.01;43.24;83.27;;
52872;Laerm;40124;52.198;9.902;2022-10-26T03:41:52;69.45;41.75;85.48;;
52872;Laerm;40124;52.198;9.902;2022-10-26T03:44:19;61.66;42.47;77.62;;
52872;Laerm;40124;52.198;9.902;2022-10-26T03:46:44;68.53;45.89;82.42;;
52872;Laerm;40124;52.198;9.902;2022-10-26T03:49:09;69.49;47.48;81.78;;
52872;Laerm;40124;52.198;9.902;2022-10-26T03:51:34;70.74;47.08;85.12;;
52872;Laerm;40124;52.198;9.902;2022-10-26T03:54:00;70.87;44.87;86.64;;
52872;Laerm;40124;52.198;9.902;2022-10-26T03:56:25;71.31;44.11;87.43;;
52872;Laerm;40124;52.198;9.902;2022-10-26T03:58:50;70.82;42.03;85.44;;
52872;Laerm;40124;52.198;9.902;2022-10-26T04:01:15;69.44;41.22;85.21;;
52872;Laerm;40124;52.198;9.902;2022-10-26T04:03:41;64.70;44.35;79.15;;
52872;Laerm;40124;52.198;9.902;2022-10-26T04:06:06;69.32;45.63;84.75;;
52872;Laerm;40124;52.198;9.902;2022-10-26T04:08:31;70.68;41.11;89.07;;
52872;Laerm;40124;52.198;9.902;2022-10-26T04:10:56;70.04;43.86;83.11;;
52872;Laerm;40124;52.198;9.902;2022-10-26T04:13:21;70.43;42.47;86.81;;
52872;Laerm;40124;52.198;9.902;2022-10-26T04:15:47;72.47;45.48;87.87;;
52872;Laerm;40124;52.198;9.902;2022-10-26T04:18:13;70.71;43.54;84.18;;
52872;Laerm;40124;52.198;9.902;2022-10-26T04:20:38;70.86;45.57;86.18;;
52872;Laerm;40124;52.198;9.902;2022-10-26T04:23:06;73.32;47.12;87.94;;
52872;Laerm;40124;52.198;9.902;2022-10-26T04:25:32;70.89;49.64;84.19;;
52872;Laerm;40124;52.198;9.902;2022-10-26T04:27:58;69.91;51.24;81.91;;
52872;Laerm;40124;52.198;9.902;2022-10-26T04:30:23;72.05;47.86;87.09;;
52872;Laerm;40124;52.198;9.902;2022-10-26T04:32:48;69.52;47.67;82.36;;
52872;Laerm;40124;52.198;9.902;2022-10-26T04:35:13;73.35;47.52;87.92;;
52872;Laerm;40124;52.198;9.902;2022-10-26T04:37:39;72.14;48.36;87.11;;
52872;Laerm;40124;52.198;9.902;2022-10-26T04:40:04;72.43;46.75;86.00;;
52872;Laerm;40124;52.198;9.902;2022-10-26T04:42:29;70.97;48.98;84.88;;
52872;Laerm;40124;52.198;9.902;2022-10-26T04:45:01;75.05;56.01;89.16;;
52872;Laerm;40124;52.198;9.902;2022-10-26T04:47:26;71.42;45.99;86.73;;
52872;Laerm;40124;52.198;9.902;2022-10-26T04:49:51;68.87;45.27;79.88;;
52872;Laerm;40124;52.198;9.902;2022-10-26T04:52:17;71.22;52.42;87.18;;
52872;Laerm;40124;52.198;9.902;2022-10-26T04:54:49;73.74;51.72;90.30;;
52872;Laerm;40124;52.198;9.902;2022-10-26T04:57:14;69.00;44.19;82.22;;
52872;Laerm;40124;52.198;9.902;2022-10-26T04:59:40;70.86;48.69;81.77;;
52872;Laerm;40124;52.198;9.902;2022-10-26T05:02:05;72.91;50.58;88.16;;
52872;Laerm;40124;52.198;9.902;2022-10-26T05:04:30;71.02;51.80;82.92;;
52872;Laerm;40124;52.198;9.902;2022-10-26T05:06:55;72.46;50.70;87.87;;
52872;Laerm;40124;52.198;9.902;2022-10-26T05:09:20;67.54;45.27;79.10;;
52872;Laerm;40124;52.198;9.902;2022-10-26T05:11:45;72.17;44.87;85.35;;
52872;Laerm;40124;52.198;9.902;2022-10-26T05:14:10;71.21;48.13;82.67;;
52872;Laerm;40124;52.198;9.902;2022-10-26T05:16:37;70.19;47.52;81.68;;
52872;Laerm;40124;52.198;9.902;2022-10-26T05:19:02;73.03;51.87;87.27;;
52872;Laerm;40124;52.198;9.902;2022-10-26T05:21:27;75.55;50.53;87.91;;
52872;Laerm;40124;52.198;9.902;2022-10-26T05:23:52;71.95;48.81;84.60;;
52872;Laerm;40124;52.198;9.902;2022-10-26T05:26:19;70.78;50.61;82.20;;
52872;Laerm;40124;52.198;9.902;2022-10-26T05:28:44;69.70;47.54;83.29;;
52872;Laerm;40124;52.198;9.902;2022-10-26T05:31:10;69.87;49.85;82.07;;
52872;Laerm;40124;52.198;9.902;2022-10-26T05:33:35;70.17;51.60;79.69;;
52872;Laerm;40124;52.198;9.902;2022-10-26T05:36:00;72.00;52.34;85.27;;
52872;Laerm;40124;52.198;9.902;2022-10-26T05:38:25;74.23;56.21;86.72;;
52872;Laerm;40124;52.198;9.902;2022-10-26T05:40:51;71.35;52.27;81.97;;
52872;Laerm;40124;52.198;9.902;2022-10-26T05:43:17;72.42;49.14;88.02;;
52872;Laerm;40124;52.198;9.902;2022-10-26T05:45:42;69.88;50.73;82.83;;
52872;Laerm;40124;52.198;9.902;2022-10-26T05:48:07;69.58;48.48;80.00;;
52872;Laerm;40124;52.198;9.902;2022-10-26T05:50:33;72.24;51.44;86.34;;
52872;Laerm;40124;52.198;9.902;2022-10-26T05:52:58;72.54;49.16;84.52;;
52872;Laerm;40124;52.198;9.902;2022-10-26T05:55:23;70.89;52.33;83.15;;
52872;Laerm;40124;52.198;9.902;2022-10-26T05:57:48;68.08;45.51;80.96;;
52872;Laerm;40124;52.198;9.902;2022-10-26T06:00:18;68.93;48.99;80.92;;
52872;Laerm;40124;52.198;9.902;2022-10-26T06:02:51;70.16;48.67;82.08;;
52872;Laerm;40124;52.198;9.902;2022-10-26T06:05:23;70.87;52.32;84.42;;
52872;Laerm;40124;52.198;9.902;2022-10-26T06:07:50;70.04;48.90;80.48;;
52872;Laerm;40124;52.198;9.902;2022-10-26T06:10:15;71.34;46.62;84.90;;
52872;Laerm;40124;52.198;9.902;2022-10-26T06:12:40;69.61;50.21;83.86;;
52872;Laerm;40124;52.198;9.902;2022-10-26T06:15:06;69.13;49.18;91.38;;
52872;Laerm;40124;52.198;9.902;2022-10-26T06:25:08;71.26;49.07;85.57;;
52872;Laerm;40124;52.198;9.902;2022-10-26T06:27:55;69.75;48.42;83.69;;
52872;Laerm;40124;52.198;9.902;2022-10-26T06:30:27;71.43;45.60;85.67;;
52872;Laerm;40124;52.198;9.902;2022-10-26T06:32:53;71.72;55.69;85.49;;
52872;Laerm;40124;52.198;9.902;2022-10-26T06:38:07;69.86;49.33;84.06;;
52872;Laerm;40124;52.198;9.902;2022-10-26T06:40:34;70.43;48.61;83.31;;
52872;Laerm;40124;52.198;9.902;2022-10-26T06:43:00;67.77;47.57;81.49;;
52872;Laerm;40124;52.198;9.902;2022-10-26T06:45:26;68.60;53.46;78.32;;
52872;Laerm;40124;52.198;9.902;2022-10-26T06:47:53;72.37;48.55;86.82;;
52872;Laerm;40124;52.198;9.902;2022-10-26T06:52:56;66.32;48.23;79.02;;
52872;Laerm;40124;52.198;9.902;2022-10-26T06:55:24;66.00;43.86;81.40;;
52872;Laerm;40124;52.198;9.902;2022-10-26T06:57:51;70.79;44.94;87.84;;
52872;Laerm;40124;52.198;9.902;2022-10-26T07:00:20;72.36;51.57;86.54;;
52872;Laerm;40124;52.198;9.902;2022-10-26T07:02:46;66.36;45.99;79.00;;
52872;Laerm;40124;52.198;9.902;2022-10-26T07:05:12;69.78;44.52;84.52;;
52872;Laerm;40124;52.198;9.902;2022-10-26T07:07:41;72.10;46.25;87.31;;
52872;Laerm;40124;52.198;9.902;2022-10-26T07:10:07;68.16;46.25;81.15;;
52872;Laerm;40124;52.198;9.902;2022-10-26T07:12:32;72.13;48.54;88.62;;
52872;Laerm;40124;52.198;9.902;2022-10-26T07:14:57;71.76;48.23;88.18;;
52872;Laerm;40124;52.198;9.902;2022-10-26T07:17:24;68.66;46.23;79.66;;
52872;Laerm;40124;52.198;9.902;2022-10-26T07:19:51;70.63;49.52;86.04;;
52872;Laerm;40124;52.198;9.902;2022-10-26T07:22:16;70.97;51.08;87.63;;
52872;Laerm;40124;52.198;9.902;2022-10-26T07:24:41;72.04;50.82;85.21;;
52872;Laerm;40124;52.198;9.902;2022-10-26T07:27:06;67.87;44.39;80.89;;
52872;Laerm;40124;52.198;9.902;2022-10-26T07:29:31;68.23;46.23;83.53;;
52872;Laerm;40124;52.198;9.902;2022-10-26T07:31:59;71.19;49.77;84.35;;
52872;Laerm;40124;52.198;9.902;2022-10-26T07:34:24;71.25;50.39;81.63;;
52872;Laerm;40124;52.198;9.902;2022-10-26T07:36:49;70.57;46.20;86.78;;
52872;Laerm;40124;52.198;9.902;2022-10-26T07:39:15;68.84;43.04;83.89;;
52872;Laerm;40124;52.198;9.902;2022-10-26T07:41:40;70.82;45.69;84.18;;
52872;Laerm;40124;52.198;9.902;2022-10-26T07:44:05;71.19;49.32;85.64;;
52872;Laerm;40124;52.198;9.902;2022-10-26T07:46:30;70.29;50.08;85.86;;
52872;Laerm;40124;52.198;9.902;2022-10-26T07:48:56;69.89;43.34;83.46;;
52872;Laerm;40124;52.198;9.902;2022-10-26T07:51:21;71.70;44.80;86.47;;
52872;Laerm;40124;52.198;9.902;2022-10-26T07:53:46;71.36;47.06;85.89;;
52872;Laerm;40124;52.198;9.902;2022-10-26T07:56:11;69.22;45.20;83.59;;
52872;Laerm;40124;52.198;9.902;2022-10-26T07:58:37;67.42;48.43;78.18;;
52872;Laerm;40124;52.198;9.902;2022-10-26T08:01:09;70.74;52.85;86.42;;
52872;Laerm;40124;52.198;9.902;2022-10-26T08:03:35;71.34;47.68;86.52;;
52872;Laerm;40124;52.198;9.902;2022-10-26T08:06:00;73.22;51.41;88.02;;
52872;Laerm;40124;52.198;9.902;2022-10-26T08:08:25;70.46;48.09;85.45;;
52872;Laerm;40124;52.198;9.902;2022-10-26T08:10:50;71.21;45.83;86.58;;
52872;Laerm;40124;52.198;9.902;2022-10-26T08:13:16;68.82;46.77;82.83;;
52872;Laerm;40124;52.198;9.902;2022-10-26T08:15:41;68.94;49.95;82.58;;
52872;Laerm;40124;52.198;9.902;2022-10-26T08:18:07;65.78;47.74;78.14;;
52872;Laerm;40124;52.198;9.902;2022-10-26T08:20:32;69.19;50.22;87.04;;
52872;Laerm;40124;52.198;9.902;2022-10-26T08:22:57;66.80;48.49;78.52;;
52872;Laerm;40124;52.198;9.902;2022-10-26T08:25:23;67.99;48.42;81.60;;
52872;Laerm;40124;52.198;9.902;2022-10-26T08:27:48;71.63;54.90;86.13;;
52872;Laerm;40124;52.198;9.902;2022-10-26T08:30:13;71.06;52.59;87.27;;
52872;Laerm;40124;52.198;9.902;2022-10-26T08:32:39;68.83;45.57;80.95;;
52872;Laerm;40124;52.198;9.902;2022-10-26T08:35:04;70.06;46.71;85.67;;
52872;Laerm;40124;52.198;9.902;2022-10-26T08:37:29;67.87;44.65;79.36;;
52872;Laerm;40124;52.198;9.902;2022-10-26T08:39:55;70.02;45.04;83.97;;
52872;Laerm;40124;52.198;9.902;2022-10-26T08:42:33;66.65;44.47;81.05;;
52872;Laerm;40124;52.198;9.902;2022-10-26T08:45:12;70.98;51.65;86.56;;
52872;Laerm;40124;52.198;9.902;2022-10-26T08:47:45;68.45;42.29;86.15;;
52872;Laerm;40124;52.198;9.902;2022-10-26T08:50:13;67.79;49.96;82.56;;
52872;Laerm;40124;52.198;9.902;2022-10-26T08:55:10;74.34;57.83;83.89;;
52872;Laerm;40124;52.198;9.902;2022-10-26T08:57:39;67.12;48.34;78.69;;
52872;Laerm;40124;52.198;9.902;2022-10-26T09:00:06;70.15;49.30;84.25;;
52872;Laerm;40124;52.198;9.902;2022-10-26T09:02:35;70.29;50.93;82.34;;
52872;Laerm;40124;52.198;9.902;2022-10-26T09:05:00;74.85;54.97;89.60;;
52872;Laerm;40124;52.198;9.902;2022-10-26T09:10:06;73.42;50.69;91.67;;
52872;Laerm;40124;52.198;9.902;2022-10-26T09:12:42;76.14;52.00;86.94;;
52872;Laerm;40124;52.198;9.902;2022-10-26T09:15:13;69.89;50.10;80.46;;
52872;Laerm;40124;52.198;9.902;2022-10-26T09:17:43;68.32;46.18;85.48;;
52872;Laerm;40124;52.198;9.902;2022-10-26T09:22:57;75.92;44.19;90.00;;
52872;Laerm;40124;52.198;9.902;2022-10-26T09:25:26;69.72;44.35;87.97;;
52872;Laerm;40124;52.198;9.902;2022-10-26T09:27:54;67.49;45.72;82.29;;
52872;Laerm;40124;52.198;9.902;2022-10-26T09:30:20;66.57;45.42;82.02;;
52872;Laerm;40124;52.198;9.902;2022-10-26T09:32:46;70.24;46.43;83.73;;
52872;Laerm;40124;52.198;9.902;2022-10-26T09:35:22;68.88;48.15;84.76;;
52872;Laerm;40124;52.198;9.902;2022-10-26T09:37:48;73.96;44.54;89.97;;
52872;Laerm;40124;52.198;9.902;2022-10-26T09:40:23;72.24;55.00;86.95;;
52872;Laerm;40124;52.198;9.902;2022-10-26T09:45:23;72.17;44.73;90.12;;
52872;Laerm;40124;52.198;9.902;2022-10-26T09:47:52;72.93;53.47;86.10;;
52872;Laerm;40124;52.198;9.902;2022-10-26T09:50:20;70.83;45.42;88.72;;
52872;Laerm;40124;52.198;9.902;2022-10-26T09:52:46;69.62;47.10;85.87;;
52872;Laerm;40124;52.198;9.902;2022-10-26T09:55:12;69.30;51.08;83.16;;
52872;Laerm;40124;52.198;9.902;2022-10-26T09:57:40;71.19;43.72;86.95;;
52872;Laerm;40124;52.198;9.902;2022-10-26T10:00:11;69.18;45.83;82.52;;
52872;Laerm;40124;52.198;9.902;2022-10-26T10:02:40;70.29;43.63;87.62;;
52872;Laerm;40124;52.198;9.902;2022-10-26T10:05:30;72.41;44.07;88.55;;
52872;Laerm;40124;52.198;9.902;2022-10-26T10:10:37;70.33;50.01;79.88;;
52872;Laerm;40124;52.198;9.902;2022-10-26T10:13:15;66.87;43.99;77.72;;
52872;Laerm;40124;52.198;9.902;2022-10-26T10:15:49;67.67;42.35;81.20;;
52872;Laerm;40124;52.198;9.902;2022-10-26T10:18:17;70.48;50.59;84.76;;
52872;Laerm;40124;52.198;9.902;2022-10-26T10:20:50;69.69;44.38;85.19;;
52872;Laerm;40124;52.198;9.902;2022-10-26T10:23:30;69.65;48.66;86.45;;
52872;Laerm;40124;52.198;9.902;2022-10-26T10:25:59;69.22;49.36;84.93;;
52872;Laerm;40124;52.198;9.902;2022-10-26T10:28:26;71.18;43.99;86.54;;
52872;Laerm;40124;52.198;9.902;2022-10-26T10:30:52;68.48;44.15;79.92;;
52872;Laerm;40124;52.198;9.902;2022-10-26T10:33:19;69.76;44.62;85.96;;
52872;Laerm;40124;52.198;9.902;2022-10-26T10:35:48;70.86;50.83;86.04;;
52872;Laerm;40124;52.198;9.902;2022-10-26T10:38:15;69.79;43.72;85.18;;
52872;Laerm;40124;52.198;9.902;2022-10-26T10:40:41;68.53;43.29;82.50;;
52872;Laerm;40124;52.198;9.902;2022-10-26T10:43:13;71.04;43.19;85.64;;
52872;Laerm;40124;52.198;9.902;2022-10-26T10:45:39;70.46;46.59;86.20;;
52872;Laerm;40124;52.198;9.902;2022-10-26T10:50:36;69.42;47.38;80.82;;
52872;Laerm;40124;52.198;9.902;2022-10-26T10:53:12;69.98;47.24;82.32;;
52872;Laerm;40124;52.198;9.902;2022-10-26T10:55:39;73.63;51.37;88.39;;
52872;Laerm;40124;52.198;9.902;2022-10-26T10:58:07;71.04;45.80;87.27;;
52872;Laerm;40124;52.198;9.902;2022-10-26T11:00:38;71.44;50.06;84.86;;
52872;Laerm;40124;52.198;9.902;2022-10-26T11:03:14;72.23;45.20;88.00;;
52872;Laerm;40124;52.198;9.902;2022-10-26T11:09:01;69.88;47.91;83.68;;
52872;Laerm;40124;52.198;9.902;2022-10-26T11:11:11;69.76;45.27;86.19;;
52872;Laerm;40124;52.198;9.902;2022-10-26T11:13:51;72.18;51.59;87.42;;
52872;Laerm;40124;52.198;9.902;2022-10-26T11:16:25;71.12;47.61;87.19;;
52872;Laerm;40124;52.198;9.902;2022-10-26T11:18:57;70.16;43.09;88.25;;
52872;Laerm;40124;52.198;9.902;2022-10-26T11:21:25;74.54;48.15;91.94;;
52872;Laerm;40124;52.198;9.902;2022-10-26T11:23:54;70.51;44.94;84.86;;
52872;Laerm;40124;52.198;9.902;2022-10-26T11:26:26;70.02;48.98;81.56;;
52872;Laerm;40124;52.198;9.902;2022-10-26T11:28:58;71.71;48.98;87.70;;
52872;Laerm;40124;52.198;9.902;2022-10-26T11:31:27;69.36;45.63;81.78;;
52872;Laerm;40124;52.198;9.902;2022-10-26T11:36:35;72.07;53.54;84.95;;
52872;Laerm;40124;52.198;9.902;2022-10-26T11:39:14;70.93;48.95;83.23;;
52872;Laerm;40124;52.198;9.902;2022-10-26T11:41:48;70.40;46.05;84.14;;
52872;Laerm;40124;52.198;9.902;2022-10-26T11:44:20;68.39;44.35;78.59;;
52872;Laerm;40124;52.198;9.902;2022-10-26T11:49:20;71.93;45.86;87.24;;
52872;Laerm;40124;52.198;9.902;2022-10-26T11:54:18;69.23;49.84;81.16;;
52872;Laerm;40124;52.198;9.902;2022-10-26T11:56:46;69.05;43.19;81.45;;
52872;Laerm;40124;52.198;9.902;2022-10-26T11:59:34;72.99;45.54;86.97;;
52872;Laerm;40124;52.198;9.902;2022-10-26T12:02:31;72.61;50.21;88.48;;
52872;Laerm;40124;52.198;9.902;2022-10-26T12:05:15;70.93;46.52;87.67;;
52872;Laerm;40124;52.198;9.902;2022-10-26T12:07:37;71.72;53.50;84.99;;
52872;Laerm;40124;52.198;9.902;2022-10-26T12:10:05;70.24;50.00;79.64;;
52872;Laerm;40124;52.198;9.902;2022-10-26T12:12:34;69.66;50.96;80.25;;
52872;Laerm;40124;52.198;9.902;2022-10-26T12:15:44;70.38;42.47;88.59;;
52872;Laerm;40124;52.198;9.902;2022-10-26T12:17:54;69.20;44.83;81.60;;
52872;Laerm;40124;52.198;9.902;2022-10-26T12:23:07;72.25;43.94;86.00;;
52872;Laerm;40124;52.198;9.902;2022-10-26T12:25:35;72.80;49.75;90.60;;
52872;Laerm;40124;52.198;9.902;2022-10-26T12:28:00;70.63;52.05;85.95;;
52872;Laerm;40124;52.198;9.902;2022-10-26T12:30:32;69.61;48.10;82.15;;
52872;Laerm;40124;52.198;9.902;2022-10-26T12:33:02;72.43;49.38;90.46;;
52872;Laerm;40124;52.198;9.902;2022-10-26T12:35:48;72.14;44.80;85.73;;
52872;Laerm;40124;52.198;9.902;2022-10-26T12:40:47;70.70;45.51;82.50;;
52872;Laerm;40124;52.198;9.902;2022-10-26T12:45:38;72.84;43.54;88.86;;
52872;Laerm;40124;52.198;9.902;2022-10-26T12:48:03;71.42;45.69;87.92;;
52872;Laerm;40124;52.198;9.902;2022-10-26T12:50:29;72.07;47.81;82.08;;
52872;Laerm;40124;52.198;9.902;2022-10-26T12:52:59;71.11;50.56;80.96;;
52872;Laerm;40124;52.198;9.902;2022-10-26T12:58:22;70.17;51.54;80.55;;
52872;Laerm;40124;52.198;9.902;2022-10-26T13:03:38;72.46;49.67;90.32;;
52872;Laerm;40124;52.198;9.902;2022-10-26T13:08:53;71.76;43.68;84.73;;
52872;Laerm;40124;52.198;9.902;2022-10-26T13:11:22;70.21;46.33;83.10;;
52872;Laerm;40124;52.198;9.902;2022-10-26T13:13:51;70.43;47.95;84.49;;
52872;Laerm;40124;52.198;9.902;2022-10-26T13:16:18;70.08;49.57;80.56;;
52872;Laerm;40124;52.198;9.902;2022-10-26T13:18:44;71.81;46.71;84.64;;
52872;Laerm;40124;52.198;9.902;2022-10-26T13:21:12;71.64;45.80;86.69;;
52872;Laerm;40124;52.198;9.902;2022-10-26T13:26:21;71.97;43.77;86.83;;
52872;Laerm;40124;52.198;9.902;2022-10-26T13:28:49;69.18;43.19;82.99;;
52872;Laerm;40124;52.198;9.902;2022-10-26T13:31:51;73.16;44.97;86.91;;
52872;Laerm;40124;52.198;9.902;2022-10-26T13:39:21;70.06;43.28;80.92;;
52872;Laerm;40124;52.198;9.902;2022-10-26T13:41:48;69.46;44.19;79.66;;
52872;Laerm;40124;52.198;9.902;2022-10-26T13:44:22;69.86;45.20;85.00;;
52872;Laerm;40124;52.198;9.902;2022-10-26T13:46:51;71.04;44.73;82.44;;
52872;Laerm;40124;52.198;9.902;2022-10-26T13:49:20;69.78;40.62;88.30;;
52872;Laerm;40124;52.198;9.902;2022-10-26T13:51:47;72.51;50.44;89.27;;
52872;Laerm;40124;52.198;9.902;2022-10-26T13:54:16;74.97;50.67;88.09;;
52872;Laerm;40124;52.198;9.902;2022-10-26T13:56:47;69.83;47.34;82.86;;
52872;Laerm;40124;52.198;9.902;2022-10-26T13:59:17;70.70;43.81;81.24;;
52872;Laerm;40124;52.198;9.902;2022-10-26T14:01:42;71.64;47.91;84.13;;
52872;Laerm;40124;52.198;9.902;2022-10-26T14:04:14;71.05;44.80;87.71;;
52872;Laerm;40124;52.198;9.902;2022-10-26T14:06:40;71.26;46.64;84.37;;
52872;Laerm;40124;52.198;9.902;2022-10-26T14:09:13;70.38;48.69;80.96;;
52872;Laerm;40124;52.198;9.902;2022-10-26T14:11:43;73.54;49.35;90.71;;
52872;Laerm;40124;52.198;9.902;2022-10-26T14:14:14;73.32;48.94;85.25;;
52872;Laerm;40124;52.198;9.902;2022-10-26T14:16:41;73.19;51.93;96.07;;
52872;Laerm;40124;52.198;9.902;2022-10-26T14:19:13;73.26;50.41;85.71;;
52872;Laerm;40124;52.198;9.902;2022-10-26T14:21:39;70.03;46.07;80.83;;
52872;Laerm;40124;52.198;9.902;2022-10-26T14:24:04;72.60;57.05;84.19;;
52872;Laerm;40124;52.198;9.902;2022-10-26T14:26:43;71.60;53.79;84.10;;
52872;Laerm;40124;52.198;9.902;2022-10-26T14:29:16;75.03;49.18;85.95;;
52872;Laerm;40124;52.198;9.902;2022-10-26T14:31:42;73.15;49.06;88.47;;
52872;Laerm;40124;52.198;9.902;2022-10-26T14:34:08;74.16;54.14;88.56;;
52872;Laerm;40124;52.198;9.902;2022-10-26T14:39:05;69.78;46.71;80.76;;
52872;Laerm;40124;52.198;9.902;2022-10-26T14:41:33;70.57;50.31;80.10;;
52872;Laerm;40124;52.198;9.902;2022-10-26T14:43:58;71.16;45.36;81.31;;
52872;Laerm;40124;52.198;9.902;2022-10-26T14:46:24;72.34;49.21;84.42;;
52872;Laerm;40124;52.198;9.902;2022-10-26T14:48:52;72.64;53.69;83.17;;
52872;Laerm;40124;52.198;9.902;2022-10-26T14:51:19;70.90;49.70;83.54;;
52872;Laerm;40124;52.198;9.902;2022-10-26T14:53:49;71.37;48.99;80.70;;
52872;Laerm;40124;52.198;9.902;2022-10-26T14:58:46;71.76;43.72;87.41;;
52872;Laerm;40124;52.198;9.902;2022-10-26T15:03:45;73.50;49.27;88.14;;
52872;Laerm;40124;52.198;9.902;2022-10-26T15:07:14;70.03;51.98;81.36;;
52872;Laerm;40124;52.198;9.902;2022-10-26T15:09:27;70.64;46.91;81.04;;
52872;Laerm;40124;52.198;9.902;2022-10-26T15:11:52;71.96;51.42;86.35;;
52872;Laerm;40124;52.198;9.902;2022-10-26T15:14:17;74.33;48.61;90.98;;
52872;Laerm;40124;52.198;9.902;2022-10-26T15:16:49;70.77;47.57;81.68;;
52872;Laerm;40124;52.198;9.902;2022-10-26T15:19:14;67.81;48.02;81.31;;
52872;Laerm;40124;52.198;9.902;2022-10-26T15:21:46;71.77;46.45;84.09;;
52872;Laerm;40124;52.198;9.902;2022-10-26T15:24:24;70.59;50.32;82.11;;
52872;Laerm;40124;52.198;9.902;2022-10-26T15:26:50;71.02;48.05;84.09;;